sensor_id;sensor_type;location;lat;lon;timestamp;P1;durP1;ratioP1;P2;durP2;ratioP2
32196;SDS011;18697;42.770;23.400;2022-11-03T00:01:47;19.50;;;9.18;;
32196;SDS011;18697;42.770;23.400;2022-11-03T00:04:14;38.35;;;13.82;;
32196;SDS011;18697;42.770;23.400;2022-11-03T00:06:42;15.15;;;7.97;;
32196;SDS011;18697;42.770;23.400;2022-11-03T00:09:10;16.90;;;7.47;;
32196;SDS011;18697;42.770;23.400;2022-11-03T00:11:37;17.15;;;8.20;;
32196;SDS011;18697;42.770;23.400;2022-11-03T00:14:03;18.00;;;6.80;;
32196;SDS011;18697;42.770;23.400;2022-11-03T00:16:30;12.07;;;5.90;;
32196;SDS011;18697;42.770;23.400;2022-11-03T00:18:55;8.90;;;5.07;;
32196;SDS011;18697;42.770;23.400;2022-11-03T00:21:21;15.40;;;5.72;;
32196;SDS011;18697;42.770;23.400;2022-11-03T00:26:16;21.13;;;9.77;;
32196;SDS011;18697;42.770;23.400;2022-11-03T00:28:45;11.88;;;5.93;;
32196;SDS011;18697;42.770;23.400;2022-11-03T00:31:14;11.90;;;5.22;;
32196;SDS011;18697;42.770;23.400;2022-11-03T00:33:41;16.60;;;7.20;;
32196;SDS011;18697;42.770;23.400;2022-11-03T00:36:09;11.30;;;5.55;;
32196;SDS011;18697;42.770;23.400;2022-11-03T00:38:37;13.23;;;6.85;;
32196;SDS011;18697;42.770;23.400;2022-11-03T00:41:03;20.75;;;7.78;;
32196;SDS011;18697;42.770;23.400;2022-11-03T00:43:30;20.20;;;9.45;;
32196;SDS011;18697;42.770;23.400;2022-11-03T00:45:56;19.13;;;7.95;;
32196;SDS011;18697;42.770;23.400;2022-11-03T00:48:22;16.45;;;6.80;;
32196;SDS011;18697;42.770;23.400;2022-11-03T00:53:28;13.30;;;6.53;;
32196;SDS011;18697;42.770;23.400;2022-11-03T00:55:54;13.73;;;6.05;;
32196;SDS011;18697;42.770;23.400;2022-11-03T00:58:20;12.45;;;6.00;;
32196;SDS011;18697;42.770;23.400;2022-11-03T01:00:45;11.77;;;5.78;;
32196;SDS011;18697;42.770;23.400;2022-11-03T01:03:11;9.73;;;5.15;;
32196;SDS011;18697;42.770;23.400;2022-11-03T01:05:43;9.88;;;5.72;;
32196;SDS011;18697;42.770;23.400;2022-11-03T01:08:33;9.85;;;5.13;;
32196;SDS011;18697;42.770;23.400;2022-11-03T01:11:19;10.20;;;4.75;;
32196;SDS011;18697;42.770;23.400;2022-11-03T01:14:05;8.18;;;4.82;;
32196;SDS011;18697;42.770;23.400;2022-11-03T01:16:31;10.82;;;5.30;;
32196;SDS011;18697;42.770;23.400;2022-11-03T01:18:57;9.98;;;5.18;;
32196;SDS011;18697;42.770;23.400;2022-11-03T01:21:22;7.03;;;4.90;;
32196;SDS011;18697;42.770;23.400;2022-11-03T01:23:49;11.57;;;5.10;;
32196;SDS011;18697;42.770;23.400;2022-11-03T01:26:15;11.07;;;5.07;;
32196;SDS011;18697;42.770;23.400;2022-11-03T01:28:42;12.13;;;4.72;;
32196;SDS011;18697;42.770;23.400;2022-11-03T01:31:19;8.60;;;5.07;;
32196;SDS011;18697;42.770;23.400;2022-11-03T01:33:48;16.90;;;5.68;;
32196;SDS011;18697;42.770;23.400;2022-11-03T01:36:14;9.57;;;5.47;;
32196;SDS011;18697;42.770;23.400;2022-11-03T01:38:41;10.70;;;4.97;;
32196;SDS011;18697;42.770;23.400;2022-11-03T01:41:08;8.85;;;4.97;;
32196;SDS011;18697;42.770;23.400;2022-11-03T01:43:36;14.52;;;5.03;;
32196;SDS011;18697;42.770;23.400;2022-11-03T01:48:34;10.80;;;5.22;;
32196;SDS011;18697;42.770;23.400;2022-11-03T01:51:03;15.93;;;5.80;;
32196;SDS011;18697;42.770;23.400;2022-11-03T01:53:30;8.93;;;4.80;;
32196;SDS011;18697;42.770;23.400;2022-11-03T01:55:56;7.63;;;4.22;;
32196;SDS011;18697;42.770;23.400;2022-11-03T01:58:27;8.55;;;4.80;;
32196;SDS011;18697;42.770;23.400;2022-11-03T02:00:56;10.93;;;4.63;;
32196;SDS011;18697;42.770;23.400;2022-11-03T02:03:23;7.60;;;4.32;;
32196;SDS011;18697;42.770;23.400;2022-11-03T02:05:51;10.77;;;5.28;;
32196;SDS011;18697;42.770;23.400;2022-11-03T02:11:10;8.48;;;4.07;;
32196;SDS011;18697;42.770;23.400;2022-11-03T02:13:55;7.40;;;4.60;;
32196;SDS011;18697;42.770;23.400;2022-11-03T02:16:21;8.70;;;4.93;;
32196;SDS011;18697;42.770;23.400;2022-11-03T02:18:49;8.15;;;4.57;;
32196;SDS011;18697;42.770;23.400;2022-11-03T02:21:26;8.30;;;4.60;;
32196;SDS011;18697;42.770;23.400;2022-11-03T02:26:23;7.70;;;4.40;;
32196;SDS011;18697;42.770;23.400;2022-11-03T02:28:49;10.73;;;5.10;;
32196;SDS011;18697;42.770;23.400;2022-11-03T02:31:15;10.38;;;4.30;;
32196;SDS011;18697;42.770;23.400;2022-11-03T02:36:34;8.45;;;4.53;;
32196;SDS011;18697;42.770;23.400;2022-11-03T02:39:10;7.63;;;4.40;;
32196;SDS011;18697;42.770;23.400;2022-11-03T02:41:38;9.25;;;4.57;;
32196;SDS011;18697;42.770;23.400;2022-11-03T02:44:11;9.45;;;4.13;;
32196;SDS011;18697;42.770;23.400;2022-11-03T02:46:41;7.47;;;4.90;;
32196;SDS011;18697;42.770;23.400;2022-11-03T02:49:08;7.10;;;4.82;;
32196;SDS011;18697;42.770;23.400;2022-11-03T02:51:33;11.13;;;4.93;;
32196;SDS011;18697;42.770;23.400;2022-11-03T02:56:42;6.18;;;4.63;;
32196;SDS011;18697;42.770;23.400;2022-11-03T02:59:14;8.75;;;5.15;;
32196;SDS011;18697;42.770;23.400;2022-11-03T03:01:48;18.25;;;9.35;;
32196;SDS011;18697;42.770;23.400;2022-11-03T03:07:01;10.23;;;6.05;;
32196;SDS011;18697;42.770;23.400;2022-11-03T03:09:32;12.63;;;6.40;;
32196;SDS011;18697;42.770;23.400;2022-11-03T03:12:03;11.65;;;5.95;;
32196;SDS011;18697;42.770;23.400;2022-11-03T03:14:31;18.27;;;8.63;;
32196;SDS011;18697;42.770;23.400;2022-11-03T03:17:04;25.67;;;12.55;;
32196;SDS011;18697;42.770;23.400;2022-11-03T03:19:49;29.25;;;13.98;;
32196;SDS011;18697;42.770;23.400;2022-11-03T03:22:28;14.32;;;6.95;;
32196;SDS011;18697;42.770;23.400;2022-11-03T03:24:59;15.48;;;9.02;;
32196;SDS011;18697;42.770;23.400;2022-11-03T03:27:33;14.88;;;8.20;;
32196;SDS011;18697;42.770;23.400;2022-11-03T03:30:04;9.35;;;5.88;;
32196;SDS011;18697;42.770;23.400;2022-11-03T03:32:33;12.52;;;5.80;;
32196;SDS011;18697;42.770;23.400;2022-11-03T03:35:04;10.52;;;6.55;;
32196;SDS011;18697;42.770;23.400;2022-11-03T03:37:35;13.48;;;6.78;;
32196;SDS011;18697;42.770;23.400;2022-11-03T03:40:04;12.77;;;6.82;;
32196;SDS011;18697;42.770;23.400;2022-11-03T03:42:34;9.23;;;6.15;;
32196;SDS011;18697;42.770;23.400;2022-11-03T03:45:01;16.58;;;7.05;;
32196;SDS011;18697;42.770;23.400;2022-11-03T03:47:30;17.67;;;7.10;;
32196;SDS011;18697;42.770;23.400;2022-11-03T03:49:59;10.30;;;6.15;;
32196;SDS011;18697;42.770;23.400;2022-11-03T03:52:25;10.20;;;6.82;;
32196;SDS011;18697;42.770;23.400;2022-11-03T03:54:51;10.52;;;5.82;;
32196;SDS011;18697;42.770;23.400;2022-11-03T03:57:19;11.18;;;6.50;;
32196;SDS011;18697;42.770;23.400;2022-11-03T03:59:47;11.40;;;6.57;;
32196;SDS011;18697;42.770;23.400;2022-11-03T04:02:13;10.20;;;6.00;;
32196;SDS011;18697;42.770;23.400;2022-11-03T04:04:38;9.98;;;5.85;;
32196;SDS011;18697;42.770;23.400;2022-11-03T04:07:04;14.80;;;6.85;;
32196;SDS011;18697;42.770;23.400;2022-11-03T04:09:49;12.85;;;6.13;;
32196;SDS011;18697;42.770;23.400;2022-11-03T04:12:14;12.18;;;5.55;;
32196;SDS011;18697;42.770;23.400;2022-11-03T04:14:58;12.50;;;6.00;;
32196;SDS011;18697;42.770;23.400;2022-11-03T04:17:43;11.82;;;6.63;;
32196;SDS011;18697;42.770;23.400;2022-11-03T04:20:28;10.05;;;6.28;;
32196;SDS011;18697;42.770;23.400;2022-11-03T04:23:13;9.77;;;6.47;;
32196;SDS011;18697;42.770;23.400;2022-11-03T04:25:38;17.35;;;9.23;;
32196;SDS011;18697;42.770;23.400;2022-11-03T04:28:07;13.82;;;7.30;;
32196;SDS011;18697;42.770;23.400;2022-11-03T04:30:36;10.05;;;5.82;;
32196;SDS011;18697;42.770;23.400;2022-11-03T04:33:01;9.82;;;6.13;;
32196;SDS011;18697;42.770;23.400;2022-11-03T04:35:29;14.75;;;6.90;;
32196;SDS011;18697;42.770;23.400;2022-11-03T04:37:55;12.45;;;6.82;;
32196;SDS011;18697;42.770;23.400;2022-11-03T04:40:25;16.48;;;7.85;;
32196;SDS011;18697;42.770;23.400;2022-11-03T04:42:51;14.95;;;7.88;;
32196;SDS011;18697;42.770;23.400;2022-11-03T04:47:52;22.42;;;12.73;;
32196;SDS011;18697;42.770;23.400;2022-11-03T04:50:19;23.45;;;15.93;;
32196;SDS011;18697;42.770;23.400;2022-11-03T04:52:56;20.48;;;12.18;;
32196;SDS011;18697;42.770;23.400;2022-11-03T04:55:22;25.67;;;11.68;;
32196;SDS011;18697;42.770;23.400;2022-11-03T04:57:49;21.33;;;10.50;;
32196;SDS011;18697;42.770;23.400;2022-11-03T05:00:20;24.50;;;12.35;;
32196;SDS011;18697;42.770;23.400;2022-11-03T05:02:47;22.50;;;12.00;;
32196;SDS011;18697;42.770;23.400;2022-11-03T05:05:15;65.43;;;40.22;;
32196;SDS011;18697;42.770;23.400;2022-11-03T05:07:43;53.92;;;28.50;;
32196;SDS011;18697;42.770;23.400;2022-11-03T05:10:16;44.58;;;16.10;;
32196;SDS011;18697;42.770;23.400;2022-11-03T05:12:44;61.67;;;22.45;;
32196;SDS011;18697;42.770;23.400;2022-11-03T05:18:00;22.52;;;10.63;;
32196;SDS011;18697;42.770;23.400;2022-11-03T05:20:29;25.77;;;9.95;;
32196;SDS011;18697;42.770;23.400;2022-11-03T05:23:03;25.33;;;10.00;;
32196;SDS011;18697;42.770;23.400;2022-11-03T05:25:46;23.27;;;9.98;;
32196;SDS011;18697;42.770;23.400;2022-11-03T05:30:48;21.38;;;12.48;;
32196;SDS011;18697;42.770;23.400;2022-11-03T05:33:18;18.42;;;10.95;;
32196;SDS011;18697;42.770;23.400;2022-11-03T05:35:46;42.00;;;28.48;;
32196;SDS011;18697;42.770;23.400;2022-11-03T05:38:14;39.40;;;25.98;;
32196;SDS011;18697;42.770;23.400;2022-11-03T05:40:40;32.67;;;22.73;;
32196;SDS011;18697;42.770;23.400;2022-11-03T05:43:07;34.03;;;19.90;;
32196;SDS011;18697;42.770;23.400;2022-11-03T05:45:37;25.23;;;15.82;;
32196;SDS011;18697;42.770;23.400;2022-11-03T05:48:03;26.80;;;15.65;;
32196;SDS011;18697;42.770;23.400;2022-11-03T05:50:42;15.95;;;9.93;;
32196;SDS011;18697;42.770;23.400;2022-11-03T05:55:50;23.33;;;14.90;;
32196;SDS011;18697;42.770;23.400;2022-11-03T06:01:03;23.50;;;16.35;;
32196;SDS011;18697;42.770;23.400;2022-11-03T06:03:34;21.05;;;12.90;;
32196;SDS011;18697;42.770;23.400;2022-11-03T06:06:00;28.15;;;18.27;;
32196;SDS011;18697;42.770;23.400;2022-11-03T06:08:35;34.83;;;25.10;;
32196;SDS011;18697;42.770;23.400;2022-11-03T06:11:01;34.58;;;20.92;;
32196;SDS011;18697;42.770;23.400;2022-11-03T06:18:48;22.52;;;14.07;;
32196;SDS011;18697;42.770;23.400;2022-11-03T06:21:15;20.80;;;15.20;;
32196;SDS011;18697;42.770;23.400;2022-11-03T06:23:45;22.23;;;11.40;;
32196;SDS011;18697;42.770;23.400;2022-11-03T06:26:18;28.92;;;19.40;;
32196;SDS011;18697;42.770;23.400;2022-11-03T06:28:46;25.67;;;11.95;;
32196;SDS011;18697;42.770;23.400;2022-11-03T06:31:16;36.20;;;15.18;;
32196;SDS011;18697;42.770;23.400;2022-11-03T06:33:47;26.60;;;19.17;;
32196;SDS011;18697;42.770;23.400;2022-11-03T06:36:46;26.40;;;11.18;;
32196;SDS011;18697;42.770;23.400;2022-11-03T06:39:08;25.70;;;13.77;;
32196;SDS011;18697;42.770;23.400;2022-11-03T06:41:49;26.00;;;16.23;;
32196;SDS011;18697;42.770;23.400;2022-11-03T06:44:25;41.92;;;25.60;;
32196;SDS011;18697;42.770;23.400;2022-11-03T06:46:58;52.17;;;27.38;;
32196;SDS011;18697;42.770;23.400;2022-11-03T06:49:29;55.10;;;28.80;;
32196;SDS011;18697;42.770;23.400;2022-11-03T06:51:57;43.25;;;21.95;;
32196;SDS011;18697;42.770;23.400;2022-11-03T06:54:26;44.80;;;21.35;;
32196;SDS011;18697;42.770;23.400;2022-11-03T06:56:51;33.22;;;16.73;;
32196;SDS011;18697;42.770;23.400;2022-11-03T06:59:16;28.15;;;15.63;;
32196;SDS011;18697;42.770;23.400;2022-11-03T07:01:44;31.13;;;18.02;;
32196;SDS011;18697;42.770;23.400;2022-11-03T07:04:17;30.48;;;15.32;;
32196;SDS011;18697;42.770;23.400;2022-11-03T07:06:52;27.50;;;16.15;;
32196;SDS011;18697;42.770;23.400;2022-11-03T07:09:21;27.45;;;17.42;;
32196;SDS011;18697;42.770;23.400;2022-11-03T07:11:51;21.98;;;11.45;;
32196;SDS011;18697;42.770;23.400;2022-11-03T07:14:26;22.42;;;11.68;;
32196;SDS011;18697;42.770;23.400;2022-11-03T07:16:53;21.27;;;11.68;;
32196;SDS011;18697;42.770;23.400;2022-11-03T07:19:42;28.48;;;15.38;;
32196;SDS011;18697;42.770;23.400;2022-11-03T07:22:21;23.52;;;11.32;;
32196;SDS011;18697;42.770;23.400;2022-11-03T07:24:53;22.48;;;11.15;;
32196;SDS011;18697;42.770;23.400;2022-11-03T07:32:56;24.45;;;12.65;;
32196;SDS011;18697;42.770;23.400;2022-11-03T07:35:44;24.50;;;16.40;;
32196;SDS011;18697;42.770;23.400;2022-11-03T07:38:17;26.83;;;17.98;;
32196;SDS011;18697;42.770;23.400;2022-11-03T07:40:44;33.20;;;17.42;;
32196;SDS011;18697;42.770;23.400;2022-11-03T07:43:14;25.77;;;11.65;;
32196;SDS011;18697;42.770;23.400;2022-11-03T07:45:47;21.58;;;10.23;;
32196;SDS011;18697;42.770;23.400;2022-11-03T07:50:48;21.40;;;10.95;;
32196;SDS011;18697;42.770;23.400;2022-11-03T07:53:17;17.42;;;8.80;;
32196;SDS011;18697;42.770;23.400;2022-11-03T07:58:37;20.48;;;10.63;;
32196;SDS011;18697;42.770;23.400;2022-11-03T08:01:22;18.73;;;10.68;;
32196;SDS011;18697;42.770;23.400;2022-11-03T08:03:50;24.13;;;10.30;;
32196;SDS011;18697;42.770;23.400;2022-11-03T08:06:18;23.10;;;10.65;;
32196;SDS011;18697;42.770;23.400;2022-11-03T08:08:44;17.70;;;11.05;;
32196;SDS011;18697;42.770;23.400;2022-11-03T08:11:09;31.20;;;11.02;;
32196;SDS011;18697;42.770;23.400;2022-11-03T08:16:00;18.42;;;11.07;;
32196;SDS011;18697;42.770;23.400;2022-11-03T08:18:25;23.15;;;14.07;;
32196;SDS011;18697;42.770;23.400;2022-11-03T08:20:51;19.42;;;9.80;;
32196;SDS011;18697;42.770;23.400;2022-11-03T08:23:16;22.65;;;12.52;;
32196;SDS011;18697;42.770;23.400;2022-11-03T08:25:42;18.13;;;9.57;;
32196;SDS011;18697;42.770;23.400;2022-11-03T08:28:08;18.88;;;12.07;;
32196;SDS011;18697;42.770;23.400;2022-11-03T08:30:33;26.02;;;13.93;;
32196;SDS011;18697;42.770;23.400;2022-11-03T08:32:58;18.58;;;8.77;;
32196;SDS011;18697;42.770;23.400;2022-11-03T08:35:24;23.02;;;14.75;;
32196;SDS011;18697;42.770;23.400;2022-11-03T08:37:50;24.60;;;11.50;;
32196;SDS011;18697;42.770;23.400;2022-11-03T08:40:15;23.85;;;12.95;;
32196;SDS011;18697;42.770;23.400;2022-11-03T08:42:41;16.52;;;11.32;;
32196;SDS011;18697;42.770;23.400;2022-11-03T08:45:06;18.05;;;8.90;;
32196;SDS011;18697;42.770;23.400;2022-11-03T08:47:32;18.10;;;11.30;;
32196;SDS011;18697;42.770;23.400;2022-11-03T08:49:57;19.85;;;12.73;;
32196;SDS011;18697;42.770;23.400;2022-11-03T08:52:24;21.42;;;12.07;;
32196;SDS011;18697;42.770;23.400;2022-11-03T08:54:50;19.58;;;9.95;;
32196;SDS011;18697;42.770;23.400;2022-11-03T08:57:15;18.13;;;12.00;;
32196;SDS011;18697;42.770;23.400;2022-11-03T08:59:40;18.00;;;12.93;;
32196;SDS011;18697;42.770;23.400;2022-11-03T09:02:06;21.08;;;12.75;;
32196;SDS011;18697;42.770;23.400;2022-11-03T09:04:31;18.33;;;9.25;;
32196;SDS011;18697;42.770;23.400;2022-11-03T09:06:57;22.58;;;9.23;;
32196;SDS011;18697;42.770;23.400;2022-11-03T09:09:22;28.60;;;9.93;;
32196;SDS011;18697;42.770;23.400;2022-11-03T09:11:47;23.17;;;11.90;;
32196;SDS011;18697;42.770;23.400;2022-11-03T09:14:13;22.23;;;9.23;;
32196;SDS011;18697;42.770;23.400;2022-11-03T09:16:39;17.58;;;8.68;;
32196;SDS011;18697;42.770;23.400;2022-11-03T09:19:04;18.00;;;12.10;;
32196;SDS011;18697;42.770;23.400;2022-11-03T09:21:29;15.27;;;10.07;;
32196;SDS011;18697;42.770;23.400;2022-11-03T09:23:55;13.80;;;9.07;;
32196;SDS011;18697;42.770;23.400;2022-11-03T09:26:23;17.17;;;10.02;;
32196;SDS011;18697;42.770;23.400;2022-11-03T09:28:50;20.60;;;8.93;;
32196;SDS011;18697;42.770;23.400;2022-11-03T09:31:16;19.33;;;8.40;;
32196;SDS011;18697;42.770;23.400;2022-11-03T09:33:42;16.70;;;8.32;;
32196;SDS011;18697;42.770;23.400;2022-11-03T09:36:07;20.83;;;10.13;;
32196;SDS011;18697;42.770;23.400;2022-11-03T09:38:33;19.17;;;8.73;;
32196;SDS011;18697;42.770;23.400;2022-11-03T09:40:58;17.70;;;8.48;;
32196;SDS011;18697;42.770;23.400;2022-11-03T09:43:24;25.38;;;9.38;;
32196;SDS011;18697;42.770;23.400;2022-11-03T09:45:50;15.27;;;7.97;;
32196;SDS011;18697;42.770;23.400;2022-11-03T09:48:15;15.93;;;7.13;;
32196;SDS011;18697;42.770;23.400;2022-11-03T09:50:41;13.43;;;7.05;;
32196;SDS011;18697;42.770;23.400;2022-11-03T09:53:10;13.70;;;8.25;;
32196;SDS011;18697;42.770;23.400;2022-11-03T09:55:36;16.25;;;7.00;;
32196;SDS011;18697;42.770;23.400;2022-11-03T09:58:13;11.45;;;6.03;;
32196;SDS011;18697;42.770;23.400;2022-11-03T10:00:40;15.20;;;6.43;;
32196;SDS011;18697;42.770;23.400;2022-11-03T10:03:08;21.42;;;7.18;;
32196;SDS011;18697;42.770;23.400;2022-11-03T10:05:37;15.70;;;8.10;;
32196;SDS011;18697;42.770;23.400;2022-11-03T10:08:04;15.48;;;6.70;;
32196;SDS011;18697;42.770;23.400;2022-11-03T10:10:35;13.40;;;6.30;;
32196;SDS011;18697;42.770;23.400;2022-11-03T10:13:01;17.58;;;10.27;;
32196;SDS011;18697;42.770;23.400;2022-11-03T10:15:32;15.88;;;7.38;;
32196;SDS011;18697;42.770;23.400;2022-11-03T10:17:59;18.45;;;10.00;;
32196;SDS011;18697;42.770;23.400;2022-11-03T10:20:26;14.75;;;9.88;;
32196;SDS011;18697;42.770;23.400;2022-11-03T10:22:52;16.67;;;10.15;;
32196;SDS011;18697;42.770;23.400;2022-11-03T10:25:35;19.52;;;10.65;;
32196;SDS011;18697;42.770;23.400;2022-11-03T10:35:55;14.45;;;9.90;;
32196;SDS011;18697;42.770;23.400;2022-11-03T10:38:24;14.55;;;7.60;;
32196;SDS011;18697;42.770;23.400;2022-11-03T10:40:54;11.45;;;5.90;;
32196;SDS011;18697;42.770;23.400;2022-11-03T10:43:20;19.05;;;6.13;;
32196;SDS011;18697;42.770;23.400;2022-11-03T10:45:45;11.45;;;4.88;;
32196;SDS011;18697;42.770;23.400;2022-11-03T10:48:11;12.40;;;6.18;;
32196;SDS011;18697;42.770;23.400;2022-11-03T10:50:39;18.13;;;10.15;;
32196;SDS011;18697;42.770;23.400;2022-11-03T10:53:12;12.88;;;7.03;;
32196;SDS011;18697;42.770;23.400;2022-11-03T10:55:41;16.25;;;6.90;;
32196;SDS011;18697;42.770;23.400;2022-11-03T10:58:07;15.73;;;6.00;;
32196;SDS011;18697;42.770;23.400;2022-11-03T11:00:32;13.43;;;7.40;;
32196;SDS011;18697;42.770;23.400;2022-11-03T11:02:58;14.50;;;6.10;;
32196;SDS011;18697;42.770;23.400;2022-11-03T11:05:25;15.65;;;5.50;;
32196;SDS011;18697;42.770;23.400;2022-11-03T11:07:51;14.70;;;7.40;;
32196;SDS011;18697;42.770;23.400;2022-11-03T11:10:25;13.38;;;6.57;;
32196;SDS011;18697;42.770;23.400;2022-11-03T11:15:43;11.88;;;7.05;;
32196;SDS011;18697;42.770;23.400;2022-11-03T11:18:10;10.85;;;3.92;;
32196;SDS011;18697;42.770;23.400;2022-11-03T11:20:56;25.07;;;4.80;;
32196;SDS011;18697;42.770;23.400;2022-11-03T11:28:33;12.65;;;4.65;;
32196;SDS011;18697;42.770;23.400;2022-11-03T11:36:33;16.02;;;6.75;;
32196;SDS011;18697;42.770;23.400;2022-11-03T11:38:59;16.80;;;4.78;;
32196;SDS011;18697;42.770;23.400;2022-11-03T11:57:49;15.00;;;5.85;;
32196;SDS011;18697;42.770;23.400;2022-11-03T12:00:26;12.02;;;5.93;;
32196;SDS011;18697;42.770;23.400;2022-11-03T12:02:54;13.38;;;5.80;;
32196;SDS011;18697;42.770;23.400;2022-11-03T12:05:24;10.88;;;3.88;;
32196;SDS011;18697;42.770;23.400;2022-11-03T12:07:52;10.57;;;4.30;;
32196;SDS011;18697;42.770;23.400;2022-11-03T12:10:29;10.95;;;3.67;;
32196;SDS011;18697;42.770;23.400;2022-11-03T12:12:55;12.73;;;6.85;;
32196;SDS011;18697;42.770;23.400;2022-11-03T12:18:31;15.57;;;4.65;;
32196;SDS011;18697;42.770;23.400;2022-11-03T12:21:01;11.82;;;3.38;;
32196;SDS011;18697;42.770;23.400;2022-11-03T12:23:33;7.40;;;3.53;;
32196;SDS011;18697;42.770;23.400;2022-11-03T12:26:04;14.00;;;4.75;;
32196;SDS011;18697;42.770;23.400;2022-11-03T12:28:30;11.65;;;3.97;;
32196;SDS011;18697;42.770;23.400;2022-11-03T12:30:57;13.02;;;3.38;;
32196;SDS011;18697;42.770;23.400;2022-11-03T12:33:25;7.80;;;2.53;;
32196;SDS011;18697;42.770;23.400;2022-11-03T12:35:51;12.00;;;2.95;;
32196;SDS011;18697;42.770;23.400;2022-11-03T12:38:17;9.90;;;3.17;;
32196;SDS011;18697;42.770;23.400;2022-11-03T12:40:42;6.18;;;3.78;;
32196;SDS011;18697;42.770;23.400;2022-11-03T12:43:08;15.93;;;4.20;;
32196;SDS011;18697;42.770;23.400;2022-11-03T12:45:33;8.07;;;2.38;;
32196;SDS011;18697;42.770;23.400;2022-11-03T12:47:59;9.82;;;3.10;;
32196;SDS011;18697;42.770;23.400;2022-11-03T12:50:24;7.13;;;3.65;;
32196;SDS011;18697;42.770;23.400;2022-11-03T12:52:50;16.38;;;3.13;;
32196;SDS011;18697;42.770;23.400;2022-11-03T12:55:15;15.88;;;4.18;;
32196;SDS011;18697;42.770;23.400;2022-11-03T12:57:40;11.45;;;2.65;;
32196;SDS011;18697;42.770;23.400;2022-11-03T13:00:06;10.13;;;3.45;;
32196;SDS011;18697;42.770;23.400;2022-11-03T13:02:32;9.85;;;3.28;;
32196;SDS011;18697;42.770;23.400;2022-11-03T13:04:58;5.18;;;2.55;;
32196;SDS011;18697;42.770;23.400;2022-11-03T13:07:24;11.77;;;4.05;;
32196;SDS011;18697;42.770;23.400;2022-11-03T13:09:49;7.78;;;2.80;;
32196;SDS011;18697;42.770;23.400;2022-11-03T13:12:14;22.15;;;2.95;;
32196;SDS011;18697;42.770;23.400;2022-11-03T13:14:55;6.47;;;2.25;;
32196;SDS011;18697;42.770;23.400;2022-11-03T13:17:25;10.18;;;3.42;;
32196;SDS011;18697;42.770;23.400;2022-11-03T13:19:51;8.63;;;2.17;;
32196;SDS011;18697;42.770;23.400;2022-11-03T13:22:16;8.90;;;2.95;;
32196;SDS011;18697;42.770;23.400;2022-11-03T13:24:42;8.00;;;2.50;;
32196;SDS011;18697;42.770;23.400;2022-11-03T13:27:07;13.50;;;2.95;;
32196;SDS011;18697;42.770;23.400;2022-11-03T13:29:33;6.40;;;2.20;;
32196;SDS011;18697;42.770;23.400;2022-11-03T13:31:58;27.17;;;3.17;;
32196;SDS011;18697;42.770;23.400;2022-11-03T13:34:24;18.13;;;4.18;;
32196;SDS011;18697;42.770;23.400;2022-11-03T13:36:49;10.95;;;2.63;;
32196;SDS011;18697;42.770;23.400;2022-11-03T13:39:14;16.63;;;3.90;;
32196;SDS011;18697;42.770;23.400;2022-11-03T13:41:40;7.82;;;2.42;;
32196;SDS011;18697;42.770;23.400;2022-11-03T13:44:05;11.88;;;2.88;;
32196;SDS011;18697;42.770;23.400;2022-11-03T13:46:32;9.07;;;2.83;;
32196;SDS011;18697;42.770;23.400;2022-11-03T13:48:57;10.60;;;3.38;;
32196;SDS011;18697;42.770;23.400;2022-11-03T13:51:23;5.72;;;3.08;;
32196;SDS011;18697;42.770;23.400;2022-11-03T13:53:48;13.50;;;3.45;;
32196;SDS011;18697;42.770;23.400;2022-11-03T13:56:14;14.18;;;3.60;;
32196;SDS011;18697;42.770;23.400;2022-11-03T13:58:39;9.35;;;2.63;;
32196;SDS011;18697;42.770;23.400;2022-11-03T14:01:04;11.07;;;3.17;;
32196;SDS011;18697;42.770;23.400;2022-11-03T14:03:30;10.50;;;3.30;;
32196;SDS011;18697;42.770;23.400;2022-11-03T14:05:55;11.75;;;3.97;;
32196;SDS011;18697;42.770;23.400;2022-11-03T14:08:20;4.75;;;2.97;;
32196;SDS011;18697;42.770;23.400;2022-11-03T14:10:46;11.98;;;2.97;;
32196;SDS011;18697;42.770;23.400;2022-11-03T14:13:11;7.15;;;3.00;;
32196;SDS011;18697;42.770;23.400;2022-11-03T14:15:37;6.60;;;2.88;;
32196;SDS011;18697;42.770;23.400;2022-11-03T14:18:02;10.63;;;4.30;;
32196;SDS011;18697;42.770;23.400;2022-11-03T14:20:27;10.32;;;3.33;;
32196;SDS011;18697;42.770;23.400;2022-11-03T14:22:53;12.88;;;3.70;;
32196;SDS011;18697;42.770;23.400;2022-11-03T14:25:18;28.75;;;5.07;;
32196;SDS011;18697;42.770;23.400;2022-11-03T14:27:44;11.38;;;2.83;;
32196;SDS011;18697;42.770;23.400;2022-11-03T14:30:11;12.55;;;4.28;;
32196;SDS011;18697;42.770;23.400;2022-11-03T14:32:37;12.63;;;4.47;;
32196;SDS011;18697;42.770;23.400;2022-11-03T14:35:03;16.90;;;3.65;;
32196;SDS011;18697;42.770;23.400;2022-11-03T14:37:29;12.63;;;4.30;;
32196;SDS011;18697;42.770;23.400;2022-11-03T14:39:54;8.23;;;3.70;;
32196;SDS011;18697;42.770;23.400;2022-11-03T14:42:20;8.57;;;3.63;;
32196;SDS011;18697;42.770;23.400;2022-11-03T14:44:45;9.80;;;3.15;;
32196;SDS011;18697;42.770;23.400;2022-11-03T14:47:13;47.53;;;6.82;;
32196;SDS011;18697;42.770;23.400;2022-11-03T14:49:41;17.30;;;5.38;;
32196;SDS011;18697;42.770;23.400;2022-11-03T14:52:07;22.88;;;4.22;;
32196;SDS011;18697;42.770;23.400;2022-11-03T14:54:33;13.65;;;4.53;;
32196;SDS011;18697;42.770;23.400;2022-11-03T14:57:00;12.95;;;4.68;;
32196;SDS011;18697;42.770;23.400;2022-11-03T14:59:26;21.92;;;3.50;;
32196;SDS011;18697;42.770;23.400;2022-11-03T15:01:52;12.70;;;4.63;;
32196;SDS011;18697;42.770;23.400;2022-11-03T15:04:19;18.35;;;4.63;;
32196;SDS011;18697;42.770;23.400;2022-11-03T15:06:45;12.13;;;3.60;;
32196;SDS011;18697;42.770;23.400;2022-11-03T15:09:12;8.77;;;3.90;;
32196;SDS011;18697;42.770;23.400;2022-11-03T15:11:40;9.55;;;4.30;;
32196;SDS011;18697;42.770;23.400;2022-11-03T15:14:07;13.32;;;4.60;;
32196;SDS011;18697;42.770;23.400;2022-11-03T15:16:32;13.50;;;5.97;;
32196;SDS011;18697;42.770;23.400;2022-11-03T15:19:02;7.22;;;4.45;;
32196;SDS011;18697;42.770;23.400;2022-11-03T15:21:28;8.90;;;4.65;;
32196;SDS011;18697;42.770;23.400;2022-11-03T15:23:54;16.42;;;5.10;;
32196;SDS011;18697;42.770;23.400;2022-11-03T15:26:20;10.52;;;5.38;;
32196;SDS011;18697;42.770;23.400;2022-11-03T15:28:45;13.20;;;6.65;;
32196;SDS011;18697;42.770;23.400;2022-11-03T15:31:11;12.35;;;7.18;;
32196;SDS011;18697;42.770;23.400;2022-11-03T15:33:36;17.30;;;8.45;;
32196;SDS011;18697;42.770;23.400;2022-11-03T15:36:01;11.32;;;5.00;;
32196;SDS011;18697;42.770;23.400;2022-11-03T15:38:28;12.52;;;6.97;;
32196;SDS011;18697;42.770;23.400;2022-11-03T15:40:54;14.13;;;5.78;;
32196;SDS011;18697;42.770;23.400;2022-11-03T15:43:39;13.18;;;7.00;;
32196;SDS011;18697;42.770;23.400;2022-11-03T15:46:08;16.70;;;8.10;;
32196;SDS011;18697;42.770;23.400;2022-11-03T15:48:34;14.23;;;6.38;;
32196;SDS011;18697;42.770;23.400;2022-11-03T15:51:00;20.90;;;6.30;;
32196;SDS011;18697;42.770;23.400;2022-11-03T15:53:25;11.88;;;5.65;;
32196;SDS011;18697;42.770;23.400;2022-11-03T15:55:50;12.18;;;6.47;;
32196;SDS011;18697;42.770;23.400;2022-11-03T15:58:16;12.50;;;5.93;;
32196;SDS011;18697;42.770;23.400;2022-11-03T16:00:41;10.57;;;6.03;;
32196;SDS011;18697;42.770;23.400;2022-11-03T16:03:06;15.13;;;6.53;;